sensor_id;sensor_type;location;lat;lon;timestamp;P1;durP1;ratioP1;P2;durP2;ratioP2
26594;SDS011;14238;49.496;8.154;2023-09-12T00:00:57;8.20;;;7.40;;
26594;SDS011;14238;49.496;8.154;2023-09-12T00:03:22;8.83;;;7.93;;
26594;SDS011;14238;49.496;8.154;2023-09-12T00:05:52;9.63;;;8.70;;
26594;SDS011;14238;49.496;8.154;2023-09-12T00:08:18;8.70;;;6.87;;
26594;SDS011;14238;49.496;8.154;2023-09-12T00:10:44;8.10;;;7.37;;
26594;SDS011;14238;49.496;8.154;2023-09-12T00:13:10;8.93;;;8.13;;
26594;SDS011;14238;49.496;8.154;2023-09-12T00:15:36;8.00;;;7.17;;
26594;SDS011;14238;49.496;8.154;2023-09-12T00:18:01;7.07;;;6.47;;
26594;SDS011;14238;49.496;8.154;2023-09-12T00:20:27;7.27;;;6.67;;
26594;SDS011;14238;49.496;8.154;2023-09-12T00:22:53;9.03;;;7.80;;
26594;SDS011;14238;49.496;8.154;2023-09-12T00:25:19;10.00;;;7.83;;
26594;SDS011;14238;49.496;8.154;2023-09-12T00:27:45;8.93;;;7.57;;
26594;SDS011;14238;49.496;8.154;2023-09-12T00:30:11;11.00;;;8.37;;
26594;SDS011;14238;49.496;8.154;2023-09-12T00:32:38;7.67;;;7.07;;
26594;SDS011;14238;49.496;8.154;2023-09-12T00:35:04;8.43;;;7.50;;
26594;SDS011;14238;49.496;8.154;2023-09-12T00:37:30;8.20;;;7.43;;
26594;SDS011;14238;49.496;8.154;2023-09-12T00:39:56;8.83;;;8.13;;
26594;SDS011;14238;49.496;8.154;2023-09-12T00:42:21;8.30;;;7.20;;
26594;SDS011;14238;49.496;8.154;2023-09-12T00:44:49;8.17;;;7.57;;
26594;SDS011;14238;49.496;8.154;2023-09-12T00:47:15;8.77;;;7.97;;
26594;SDS011;14238;49.496;8.154;2023-09-12T00:49:41;7.80;;;7.00;;
26594;SDS011;14238;49.496;8.154;2023-09-12T00:52:07;8.50;;;7.60;;
26594;SDS011;14238;49.496;8.154;2023-09-12T00:54:33;10.20;;;8.00;;
26594;SDS011;14238;49.496;8.154;2023-09-12T00:56:59;8.43;;;7.60;;
26594;SDS011;14238;49.496;8.154;2023-09-12T00:59:25;8.57;;;7.63;;
26594;SDS011;14238;49.496;8.154;2023-09-12T01:01:50;9.77;;;8.07;;
26594;SDS011;14238;49.496;8.154;2023-09-12T01:04:16;8.00;;;7.20;;
26594;SDS011;14238;49.496;8.154;2023-09-12T01:06:42;8.10;;;6.60;;
26594;SDS011;14238;49.496;8.154;2023-09-12T01:09:08;10.30;;;7.40;;
26594;SDS011;14238;49.496;8.154;2023-09-12T01:11:33;8.87;;;8.17;;
26594;SDS011;14238;49.496;8.154;2023-09-12T01:13:59;7.50;;;6.80;;
26594;SDS011;14238;49.496;8.154;2023-09-12T01:16:25;7.90;;;7.10;;
26594;SDS011;14238;49.496;8.154;2023-09-12T01:18:50;9.03;;;7.67;;
26594;SDS011;14238;49.496;8.154;2023-09-12T01:21:36;10.20;;;9.30;;
26594;SDS011;14238;49.496;8.154;2023-09-12T01:24:15;8.53;;;7.60;;
26594;SDS011;14238;49.496;8.154;2023-09-12T01:27:25;7.93;;;7.13;;
26594;SDS011;14238;49.496;8.154;2023-09-12T01:29:56;8.97;;;7.87;;
26594;SDS011;14238;49.496;8.154;2023-09-12T01:32:24;15.23;;;8.67;;
26594;SDS011;14238;49.496;8.154;2023-09-12T01:34:51;10.03;;;7.80;;
26594;SDS011;14238;49.496;8.154;2023-09-12T01:37:16;8.60;;;7.70;;
26594;SDS011;14238;49.496;8.154;2023-09-12T01:39:42;11.40;;;8.60;;
26594;SDS011;14238;49.496;8.154;2023-09-12T01:42:11;10.70;;;9.60;;
26594;SDS011;14238;49.496;8.154;2023-09-12T01:44:41;8.70;;;7.90;;
26594;SDS011;14238;49.496;8.154;2023-09-12T01:47:09;8.90;;;8.00;;
26594;SDS011;14238;49.496;8.154;2023-09-12T01:49:38;11.80;;;8.57;;
26594;SDS011;14238;49.496;8.154;2023-09-12T01:52:06;9.37;;;8.50;;
26594;SDS011;14238;49.496;8.154;2023-09-12T01:54:32;10.70;;;8.17;;
26594;SDS011;14238;49.496;8.154;2023-09-12T01:56:59;10.37;;;7.97;;
26594;SDS011;14238;49.496;8.154;2023-09-12T01:59:26;7.60;;;7.07;;
26594;SDS011;14238;49.496;8.154;2023-09-12T02:01:52;8.20;;;7.40;;
26594;SDS011;14238;49.496;8.154;2023-09-12T02:04:18;8.63;;;7.77;;
26594;SDS011;14238;49.496;8.154;2023-09-12T02:06:43;12.20;;;7.87;;
26594;SDS011;14238;49.496;8.154;2023-09-12T02:09:09;10.90;;;8.60;;
26594;SDS011;14238;49.496;8.154;2023-09-12T02:11:34;7.60;;;6.90;;
26594;SDS011;14238;49.496;8.154;2023-09-12T02:14:00;8.83;;;7.53;;
26594;SDS011;14238;49.496;8.154;2023-09-12T02:16:25;11.80;;;8.90;;
26594;SDS011;14238;49.496;8.154;2023-09-12T02:18:51;11.60;;;7.90;;
26594;SDS011;14238;49.496;8.154;2023-09-12T02:21:17;9.00;;;7.80;;
26594;SDS011;14238;49.496;8.154;2023-09-12T02:23:43;11.00;;;6.90;;
26594;SDS011;14238;49.496;8.154;2023-09-12T02:26:08;10.67;;;8.77;;
26594;SDS011;14238;49.496;8.154;2023-09-12T02:28:34;9.30;;;8.40;;
26594;SDS011;14238;49.496;8.154;2023-09-12T02:30:59;8.77;;;8.00;;
26594;SDS011;14238;49.496;8.154;2023-09-12T02:33:25;9.63;;;7.40;;
26594;SDS011;14238;49.496;8.154;2023-09-12T02:35:50;9.03;;;7.90;;
26594;SDS011;14238;49.496;8.154;2023-09-12T02:38:17;12.43;;;9.10;;
26594;SDS011;14238;49.496;8.154;2023-09-12T02:40:43;10.07;;;7.17;;
26594;SDS011;14238;49.496;8.154;2023-09-12T02:43:08;8.87;;;8.07;;
26594;SDS011;14238;49.496;8.154;2023-09-12T02:45:34;10.43;;;8.73;;
26594;SDS011;14238;49.496;8.154;2023-09-12T02:47:59;13.47;;;9.40;;
26594;SDS011;14238;49.496;8.154;2023-09-12T02:50:25;9.23;;;8.33;;
26594;SDS011;14238;49.496;8.154;2023-09-12T02:52:51;11.53;;;8.30;;
26594;SDS011;14238;49.496;8.154;2023-09-12T02:55:16;10.37;;;8.27;;
26594;SDS011;14238;49.496;8.154;2023-09-12T02:57:42;9.53;;;7.83;;
26594;SDS011;14238;49.496;8.154;2023-09-12T03:00:07;13.50;;;8.30;;
26594;SDS011;14238;49.496;8.154;2023-09-12T03:02:34;8.67;;;7.87;;
26594;SDS011;14238;49.496;8.154;2023-09-12T03:04:59;11.00;;;8.10;;
26594;SDS011;14238;49.496;8.154;2023-09-12T03:07:26;9.37;;;8.40;;
26594;SDS011;14238;49.496;8.154;2023-09-12T03:09:52;12.60;;;9.73;;
26594;SDS011;14238;49.496;8.154;2023-09-12T03:12:17;11.07;;;8.17;;
26594;SDS011;14238;49.496;8.154;2023-09-12T03:14:43;9.30;;;8.50;;
26594;SDS011;14238;49.496;8.154;2023-09-12T03:17:08;9.90;;;8.90;;
26594;SDS011;14238;49.496;8.154;2023-09-12T03:19:34;13.30;;;8.43;;
26594;SDS011;14238;49.496;8.154;2023-09-12T03:21:59;9.33;;;8.53;;
26594;SDS011;14238;49.496;8.154;2023-09-12T03:24:25;12.30;;;9.03;;
26594;SDS011;14238;49.496;8.154;2023-09-12T03:26:51;8.93;;;7.77;;
26594;SDS011;14238;49.496;8.154;2023-09-12T03:29:17;9.30;;;8.40;;
26594;SDS011;14238;49.496;8.154;2023-09-12T03:31:44;10.27;;;9.17;;
26594;SDS011;14238;49.496;8.154;2023-09-12T03:34:09;8.63;;;7.80;;
26594;SDS011;14238;49.496;8.154;2023-09-12T03:36:35;8.37;;;7.57;;
26594;SDS011;14238;49.496;8.154;2023-09-12T03:39:00;9.60;;;8.60;;
26594;SDS011;14238;49.496;8.154;2023-09-12T03:41:26;9.70;;;8.60;;
26594;SDS011;14238;49.496;8.154;2023-09-12T03:43:55;8.93;;;8.03;;
26594;SDS011;14238;49.496;8.154;2023-09-12T03:46:20;9.30;;;8.40;;
26594;SDS011;14238;49.496;8.154;2023-09-12T03:48:46;7.87;;;7.17;;
26594;SDS011;14238;49.496;8.154;2023-09-12T03:51:12;8.43;;;7.63;;
26594;SDS011;14238;49.496;8.154;2023-09-12T03:53:38;10.30;;;7.97;;
26594;SDS011;14238;49.496;8.154;2023-09-12T03:56:03;8.87;;;8.03;;
26594;SDS011;14238;49.496;8.154;2023-09-12T03:58:29;8.83;;;7.93;;
26594;SDS011;14238;49.496;8.154;2023-09-12T04:00:54;8.70;;;7.97;;
26594;SDS011;14238;49.496;8.154;2023-09-12T04:03:20;9.27;;;8.37;;
26594;SDS011;14238;49.496;8.154;2023-09-12T04:05:46;9.87;;;8.40;;
26594;SDS011;14238;49.496;8.154;2023-09-12T04:08:12;7.53;;;6.83;;
26594;SDS011;14238;49.496;8.154;2023-09-12T04:10:38;9.00;;;7.80;;
26594;SDS011;14238;49.496;8.154;2023-09-12T04:13:03;8.00;;;7.40;;
26594;SDS011;14238;49.496;8.154;2023-09-12T04:15:29;8.80;;;7.60;;
26594;SDS011;14238;49.496;8.154;2023-09-12T04:17:54;9.90;;;8.00;;
26594;SDS011;14238;49.496;8.154;2023-09-12T04:20:20;7.80;;;7.10;;
26594;SDS011;14238;49.496;8.154;2023-09-12T04:22:46;8.50;;;7.30;;
26594;SDS011;14238;49.496;8.154;2023-09-12T04:25:11;10.30;;;7.80;;
26594;SDS011;14238;49.496;8.154;2023-09-12T04:27:37;8.73;;;7.57;;
26594;SDS011;14238;49.496;8.154;2023-09-12T04:30:03;9.27;;;7.43;;
26594;SDS011;14238;49.496;8.154;2023-09-12T04:32:29;8.57;;;7.77;;
26594;SDS011;14238;49.496;8.154;2023-09-12T04:34:54;8.77;;;7.97;;
26594;SDS011;14238;49.496;8.154;2023-09-12T04:37:20;9.63;;;8.73;;
26594;SDS011;14238;49.496;8.154;2023-09-12T04:39:46;11.67;;;7.23;;
26594;SDS011;14238;49.496;8.154;2023-09-12T04:42:11;8.90;;;8.00;;
26594;SDS011;14238;49.496;8.154;2023-09-12T04:44:38;8.83;;;7.47;;
26594;SDS011;14238;49.496;8.154;2023-09-12T04:47:05;13.13;;;7.40;;
26594;SDS011;14238;49.496;8.154;2023-09-12T04:49:30;9.53;;;7.83;;
26594;SDS011;14238;49.496;8.154;2023-09-12T04:51:56;8.63;;;7.60;;
26594;SDS011;14238;49.496;8.154;2023-09-12T04:54:21;8.97;;;8.10;;
26594;SDS011;14238;49.496;8.154;2023-09-12T04:56:47;8.57;;;7.20;;
26594;SDS011;14238;49.496;8.154;2023-09-12T04:59:12;8.80;;;7.90;;
26594;SDS011;14238;49.496;8.154;2023-09-12T05:01:38;8.93;;;7.10;;
26594;SDS011;14238;49.496;8.154;2023-09-12T05:04:04;8.97;;;8.03;;
26594;SDS011;14238;49.496;8.154;2023-09-12T05:06:29;9.87;;;8.97;;
26594;SDS011;14238;49.496;8.154;2023-09-12T05:08:55;8.87;;;7.93;;
26594;SDS011;14238;49.496;8.154;2023-09-12T05:11:21;8.93;;;8.03;;
26594;SDS011;14238;49.496;8.154;2023-09-12T05:13:48;10.83;;;7.67;;
26594;SDS011;14238;49.496;8.154;2023-09-12T05:16:14;8.87;;;7.90;;
26594;SDS011;14238;49.496;8.154;2023-09-12T05:18:40;11.27;;;9.67;;
26594;SDS011;14238;49.496;8.154;2023-09-12T05:21:05;9.83;;;8.40;;
26594;SDS011;14238;49.496;8.154;2023-09-12T05:23:31;8.13;;;7.43;;
26594;SDS011;14238;49.496;8.154;2023-09-12T05:25:56;12.23;;;8.20;;
26594;SDS011;14238;49.496;8.154;2023-09-12T05:28:22;11.30;;;8.70;;
26594;SDS011;14238;49.496;8.154;2023-09-12T05:30:48;8.87;;;8.07;;
26594;SDS011;14238;49.496;8.154;2023-09-12T05:33:13;11.03;;;9.43;;
26594;SDS011;14238;49.496;8.154;2023-09-12T05:35:39;10.10;;;8.83;;
26594;SDS011;14238;49.496;8.154;2023-09-12T05:38:05;10.13;;;8.93;;
26594;SDS011;14238;49.496;8.154;2023-09-12T05:40:30;9.10;;;8.17;;
26594;SDS011;14238;49.496;8.154;2023-09-12T05:42:56;9.60;;;8.67;;
26594;SDS011;14238;49.496;8.154;2023-09-12T05:45:21;9.10;;;8.40;;
26594;SDS011;14238;49.496;8.154;2023-09-12T05:47:48;8.63;;;7.73;;
26594;SDS011;14238;49.496;8.154;2023-09-12T05:50:14;10.73;;;8.90;;
26594;SDS011;14238;49.496;8.154;2023-09-12T05:52:39;9.57;;;8.73;;
26594;SDS011;14238;49.496;8.154;2023-09-12T05:55:06;10.13;;;9.03;;
26594;SDS011;14238;49.496;8.154;2023-09-12T05:57:32;10.23;;;8.70;;
26594;SDS011;14238;49.496;8.154;2023-09-12T05:59:58;11.97;;;8.93;;
26594;SDS011;14238;49.496;8.154;2023-09-12T06:02:24;12.23;;;9.80;;
26594;SDS011;14238;49.496;8.154;2023-09-12T06:04:50;11.50;;;9.40;;
26594;SDS011;14238;49.496;8.154;2023-09-12T06:07:16;10.60;;;8.60;;
26594;SDS011;14238;49.496;8.154;2023-09-12T06:09:43;10.13;;;9.23;;
26594;SDS011;14238;49.496;8.154;2023-09-12T06:12:08;9.90;;;9.00;;
26594;SDS011;14238;49.496;8.154;2023-09-12T06:14:34;12.83;;;9.60;;
26594;SDS011;14238;49.496;8.154;2023-09-12T06:16:59;9.00;;;8.20;;
26594;SDS011;14238;49.496;8.154;2023-09-12T06:19:25;10.40;;;8.53;;
26594;SDS011;14238;49.496;8.154;2023-09-12T06:21:50;9.70;;;8.43;;
26594;SDS011;14238;49.496;8.154;2023-09-12T06:24:17;10.33;;;9.23;;
26594;SDS011;14238;49.496;8.154;2023-09-12T06:26:44;10.47;;;9.47;;
26594;SDS011;14238;49.496;8.154;2023-09-12T06:29:10;13.63;;;9.10;;
26594;SDS011;14238;49.496;8.154;2023-09-12T06:31:35;12.87;;;9.20;;
26594;SDS011;14238;49.496;8.154;2023-09-12T06:34:01;12.00;;;9.63;;
26594;SDS011;14238;49.496;8.154;2023-09-12T06:36:27;10.17;;;8.83;;
26594;SDS011;14238;49.496;8.154;2023-09-12T06:38:56;12.00;;;9.13;;
26594;SDS011;14238;49.496;8.154;2023-09-12T06:41:22;11.87;;;10.40;;
26594;SDS011;14238;49.496;8.154;2023-09-12T06:43:48;11.97;;;10.60;;
26594;SDS011;14238;49.496;8.154;2023-09-12T06:46:14;14.70;;;10.63;;
26594;SDS011;14238;49.496;8.154;2023-09-12T06:48:42;11.80;;;10.33;;
26594;SDS011;14238;49.496;8.154;2023-09-12T06:51:08;11.07;;;10.07;;
26594;SDS011;14238;49.496;8.154;2023-09-12T06:53:34;15.23;;;11.30;;
26594;SDS011;14238;49.496;8.154;2023-09-12T06:56:02;12.07;;;10.67;;
26594;SDS011;14238;49.496;8.154;2023-09-12T06:58:28;14.27;;;11.50;;
26594;SDS011;14238;49.496;8.154;2023-09-12T07:00:53;12.87;;;11.57;;
26594;SDS011;14238;49.496;8.154;2023-09-12T07:03:19;10.43;;;9.27;;
26594;SDS011;14238;49.496;8.154;2023-09-12T07:05:44;11.37;;;10.17;;
26594;SDS011;14238;49.496;8.154;2023-09-12T07:08:10;14.53;;;10.97;;
26594;SDS011;14238;49.496;8.154;2023-09-12T07:10:36;12.93;;;10.00;;
26594;SDS011;14238;49.496;8.154;2023-09-12T07:13:02;11.37;;;9.70;;
26594;SDS011;14238;49.496;8.154;2023-09-12T07:15:27;11.10;;;9.50;;
26594;SDS011;14238;49.496;8.154;2023-09-12T07:17:53;14.50;;;11.10;;
26594;SDS011;14238;49.496;8.154;2023-09-12T07:20:19;12.10;;;10.20;;
26594;SDS011;14238;49.496;8.154;2023-09-12T07:22:45;11.33;;;10.13;;
26594;SDS011;14238;49.496;8.154;2023-09-12T07:25:11;12.17;;;10.10;;
26594;SDS011;14238;49.496;8.154;2023-09-12T07:27:38;11.60;;;10.47;;
26594;SDS011;14238;49.496;8.154;2023-09-12T07:30:05;14.93;;;9.80;;
26594;SDS011;14238;49.496;8.154;2023-09-12T07:32:31;12.60;;;9.80;;
26594;SDS011;14238;49.496;8.154;2023-09-12T07:34:57;11.03;;;9.93;;
26594;SDS011;14238;49.496;8.154;2023-09-12T07:37:22;12.50;;;9.47;;
26594;SDS011;14238;49.496;8.154;2023-09-12T07:39:48;11.83;;;10.10;;
26594;SDS011;14238;49.496;8.154;2023-09-12T07:42:13;11.63;;;10.50;;
26594;SDS011;14238;49.496;8.154;2023-09-12T07:44:39;11.83;;;10.60;;
26594;SDS011;14238;49.496;8.154;2023-09-12T07:47:04;16.47;;;11.30;;
26594;SDS011;14238;49.496;8.154;2023-09-12T07:49:30;14.90;;;9.60;;
26594;SDS011;14238;49.496;8.154;2023-09-12T07:51:56;9.97;;;9.00;;
26594;SDS011;14238;49.496;8.154;2023-09-12T07:54:22;12.57;;;11.10;;
26594;SDS011;14238;49.496;8.154;2023-09-12T07:56:48;10.87;;;9.63;;
26594;SDS011;14238;49.496;8.154;2023-09-12T07:59:13;11.40;;;10.40;;
26594;SDS011;14238;49.496;8.154;2023-09-12T08:01:39;16.77;;;10.80;;
26594;SDS011;14238;49.496;8.154;2023-09-12T08:04:05;10.33;;;9.33;;
26594;SDS011;14238;49.496;8.154;2023-09-12T08:06:31;15.50;;;9.70;;
26594;SDS011;14238;49.496;8.154;2023-09-12T08:08:57;10.83;;;9.37;;
26594;SDS011;14238;49.496;8.154;2023-09-12T08:11:23;10.67;;;9.60;;
26594;SDS011;14238;49.496;8.154;2023-09-12T08:13:49;10.13;;;9.17;;
26594;SDS011;14238;49.496;8.154;2023-09-12T08:16:15;10.30;;;9.40;;
26594;SDS011;14238;49.496;8.154;2023-09-12T08:18:40;11.63;;;9.90;;
26594;SDS011;14238;49.496;8.154;2023-09-12T08:21:06;10.27;;;9.10;;
26594;SDS011;14238;49.496;8.154;2023-09-12T08:23:32;10.83;;;9.43;;
26594;SDS011;14238;49.496;8.154;2023-09-12T08:25:58;12.27;;;10.20;;
26594;SDS011;14238;49.496;8.154;2023-09-12T08:28:23;12.10;;;11.00;;
26594;SDS011;14238;49.496;8.154;2023-09-12T08:30:49;9.47;;;8.57;;
26594;SDS011;14238;49.496;8.154;2023-09-12T08:33:14;10.50;;;9.20;;
26594;SDS011;14238;49.496;8.154;2023-09-12T08:35:40;9.50;;;8.07;;
26594;SDS011;14238;49.496;8.154;2023-09-12T08:38:06;10.17;;;9.23;;
26594;SDS011;14238;49.496;8.154;2023-09-12T08:40:32;9.03;;;8.23;;
26594;SDS011;14238;49.496;8.154;2023-09-12T08:42:58;12.23;;;10.57;;
26594;SDS011;14238;49.496;8.154;2023-09-12T08:45:24;10.63;;;9.63;;
26594;SDS011;14238;49.496;8.154;2023-09-12T08:47:50;10.90;;;9.77;;
26594;SDS011;14238;49.496;8.154;2023-09-12T08:50:17;12.27;;;10.07;;
26594;SDS011;14238;49.496;8.154;2023-09-12T08:52:46;13.60;;;9.80;;
26594;SDS011;14238;49.496;8.154;2023-09-12T08:55:12;10.20;;;9.37;;
26594;SDS011;14238;49.496;8.154;2023-09-12T08:57:38;11.27;;;10.27;;
26594;SDS011;14238;49.496;8.154;2023-09-12T09:00:05;11.17;;;10.07;;
26594;SDS011;14238;49.496;8.154;2023-09-12T09:02:33;11.77;;;9.40;;
26594;SDS011;14238;49.496;8.154;2023-09-12T09:05:00;10.60;;;9.70;;
26594;SDS011;14238;49.496;8.154;2023-09-12T09:07:29;10.00;;;9.20;;
26594;SDS011;14238;49.496;8.154;2023-09-12T09:10:00;10.03;;;9.03;;
26594;SDS011;14238;49.496;8.154;2023-09-12T09:12:29;10.60;;;9.60;;
26594;SDS011;14238;49.496;8.154;2023-09-12T09:14:55;11.77;;;10.53;;
26594;SDS011;14238;49.496;8.154;2023-09-12T09:17:20;9.93;;;9.03;;
26594;SDS011;14238;49.496;8.154;2023-09-12T09:19:46;10.27;;;9.37;;
26594;SDS011;14238;49.496;8.154;2023-09-12T09:22:12;12.10;;;10.17;;
26594;SDS011;14238;49.496;8.154;2023-09-12T09:24:38;11.10;;;9.73;;
26594;SDS011;14238;49.496;8.154;2023-09-12T09:27:05;12.00;;;10.80;;
26594;SDS011;14238;49.496;8.154;2023-09-12T09:29:30;11.23;;;10.23;;
26594;SDS011;14238;49.496;8.154;2023-09-12T09:31:58;10.77;;;9.70;;
26594;SDS011;14238;49.496;8.154;2023-09-12T09:34:26;11.20;;;9.87;;
26594;SDS011;14238;49.496;8.154;2023-09-12T09:36:56;10.67;;;9.57;;
26594;SDS011;14238;49.496;8.154;2023-09-12T09:39:23;10.80;;;9.73;;
26594;SDS011;14238;49.496;8.154;2023-09-12T09:41:51;10.70;;;9.70;;
26594;SDS011;14238;49.496;8.154;2023-09-12T09:44:17;12.90;;;10.40;;
26594;SDS011;14238;49.496;8.154;2023-09-12T09:46:44;11.80;;;10.67;;
26594;SDS011;14238;49.496;8.154;2023-09-12T09:49:10;11.43;;;10.40;;
26594;SDS011;14238;49.496;8.154;2023-09-12T09:51:43;11.47;;;10.50;;
26594;SDS011;14238;49.496;8.154;2023-09-12T09:54:09;11.83;;;10.63;;
26594;SDS011;14238;49.496;8.154;2023-09-12T09:56:46;11.87;;;10.80;;
26594;SDS011;14238;49.496;8.154;2023-09-12T09:59:14;11.83;;;10.13;;
26594;SDS011;14238;49.496;8.154;2023-09-12T10:01:41;12.53;;;11.43;;
26594;SDS011;14238;49.496;8.154;2023-09-12T10:04:08;11.97;;;10.97;;
26594;SDS011;14238;49.496;8.154;2023-09-12T10:06:35;14.80;;;11.20;;
26594;SDS011;14238;49.496;8.154;2023-09-12T10:09:02;16.70;;;11.30;;
26594;SDS011;14238;49.496;8.154;2023-09-12T10:11:32;12.50;;;11.30;;
26594;SDS011;14238;49.496;8.154;2023-09-12T10:14:00;10.93;;;9.80;;
26594;SDS011;14238;49.496;8.154;2023-09-12T10:16:31;11.10;;;10.10;;
26594;SDS011;14238;49.496;8.154;2023-09-12T10:19:16;11.33;;;10.20;;
26594;SDS011;14238;49.496;8.154;2023-09-12T10:24:25;11.50;;;10.30;;
26594;SDS011;14238;49.496;8.154;2023-09-12T10:26:52;12.37;;;10.57;;
26594;SDS011;14238;49.496;8.154;2023-09-12T10:29:20;12.27;;;10.57;;
26594;SDS011;14238;49.496;8.154;2023-09-12T10:31:47;10.97;;;10.17;;
26594;SDS011;14238;49.496;8.154;2023-09-12T10:34:14;12.30;;;11.27;;
26594;SDS011;14238;49.496;8.154;2023-09-12T10:36:40;11.50;;;10.57;;
26594;SDS011;14238;49.496;8.154;2023-09-12T10:39:07;13.13;;;11.20;;
26594;SDS011;14238;49.496;8.154;2023-09-12T10:41:36;10.97;;;10.07;;
26594;SDS011;14238;49.496;8.154;2023-09-12T10:44:05;11.30;;;10.30;;
26594;SDS011;14238;49.496;8.154;2023-09-12T10:46:35;11.37;;;10.27;;
26594;SDS011;14238;49.496;8.154;2023-09-12T10:49:04;11.47;;;10.33;;
26594;SDS011;14238;49.496;8.154;2023-09-12T10:51:42;11.50;;;10.07;;
26594;SDS011;14238;49.496;8.154;2023-09-12T10:54:14;11.53;;;10.53;;
26594;SDS011;14238;49.496;8.154;2023-09-12T10:56:41;12.67;;;11.50;;
26594;SDS011;14238;49.496;8.154;2023-09-12T11:01:36;11.87;;;10.67;;
26594;SDS011;14238;49.496;8.154;2023-09-12T11:06:45;11.93;;;10.80;;
26594;SDS011;14238;49.496;8.154;2023-09-12T11:09:15;11.70;;;10.50;;
26594;SDS011;14238;49.496;8.154;2023-09-12T11:11:48;11.63;;;10.67;;
26594;SDS011;14238;49.496;8.154;2023-09-12T11:14:35;11.20;;;10.07;;
26594;SDS011;14238;49.496;8.154;2023-09-12T11:19:48;10.90;;;9.90;;
26594;SDS011;14238;49.496;8.154;2023-09-12T11:22:24;11.27;;;10.30;;
26594;SDS011;14238;49.496;8.154;2023-09-12T11:24:49;11.00;;;10.10;;
26594;SDS011;14238;49.496;8.154;2023-09-12T11:27:15;10.50;;;9.70;;
26594;SDS011;14238;49.496;8.154;2023-09-12T11:29:42;12.57;;;10.10;;
26594;SDS011;14238;49.496;8.154;2023-09-12T11:32:07;10.70;;;9.70;;
26594;SDS011;14238;49.496;8.154;2023-09-12T11:34:43;11.30;;;10.30;;
26594;SDS011;14238;49.496;8.154;2023-09-12T11:37:12;9.57;;;8.90;;
26594;SDS011;14238;49.496;8.154;2023-09-12T11:39:48;9.53;;;8.63;;
26594;SDS011;14238;49.496;8.154;2023-09-12T11:42:15;11.23;;;10.33;;
26594;SDS011;14238;49.496;8.154;2023-09-12T11:44:41;12.03;;;9.40;;
26594;SDS011;14238;49.496;8.154;2023-09-12T11:47:09;10.40;;;9.40;;
26594;SDS011;14238;49.496;8.154;2023-09-12T11:49:36;10.00;;;9.20;;
26594;SDS011;14238;49.496;8.154;2023-09-12T11:52:02;9.77;;;8.93;;
26594;SDS011;14238;49.496;8.154;2023-09-12T11:54:29;10.87;;;9.60;;
26594;SDS011;14238;49.496;8.154;2023-09-12T11:56:57;10.40;;;9.47;;
26594;SDS011;14238;49.496;8.154;2023-09-12T11:59:24;9.63;;;8.83;;
26594;SDS011;14238;49.496;8.154;2023-09-12T12:01:53;11.47;;;9.77;;
26594;SDS011;14238;49.496;8.154;2023-09-12T12:04:25;10.20;;;9.27;;
26594;SDS011;14238;49.496;8.154;2023-09-12T12:06:51;10.60;;;9.63;;
26594;SDS011;14238;49.496;8.154;2023-09-12T12:09:17;10.17;;;9.20;;
26594;SDS011;14238;49.496;8.154;2023-09-12T12:11:45;11.37;;;10.13;;
26594;SDS011;14238;49.496;8.154;2023-09-12T12:14:15;9.90;;;9.10;;
26594;SDS011;14238;49.496;8.154;2023-09-12T12:16:42;10.13;;;9.33;;
26594;SDS011;14238;49.496;8.154;2023-09-12T12:19:09;11.03;;;9.70;;
26594;SDS011;14238;49.496;8.154;2023-09-12T12:21:36;9.80;;;9.00;;
26594;SDS011;14238;49.496;8.154;2023-09-12T12:24:07;11.10;;;9.17;;
26594;SDS011;14238;49.496;8.154;2023-09-12T12:26:35;10.50;;;9.47;;
26594;SDS011;14238;49.496;8.154;2023-09-12T12:29:00;10.93;;;9.93;;
26594;SDS011;14238;49.496;8.154;2023-09-12T12:31:27;10.63;;;9.73;;
26594;SDS011;14238;49.496;8.154;2023-09-12T12:33:53;10.60;;;9.50;;
26594;SDS011;14238;49.496;8.154;2023-09-12T12:36:19;9.90;;;9.00;;
26594;SDS011;14238;49.496;8.154;2023-09-12T12:38:46;13.13;;;9.37;;
26594;SDS011;14238;49.496;8.154;2023-09-12T12:41:13;9.33;;;8.53;;
26594;SDS011;14238;49.496;8.154;2023-09-12T12:43:40;10.10;;;9.20;;
26594;SDS011;14238;49.496;8.154;2023-09-12T12:46:09;10.70;;;9.80;;
26594;SDS011;14238;49.496;8.154;2023-09-12T12:48:36;9.93;;;9.13;;
26594;SDS011;14238;49.496;8.154;2023-09-12T12:51:12;9.77;;;8.97;;
26594;SDS011;14238;49.496;8.154;2023-09-12T12:53:47;10.20;;;9.40;;
26594;SDS011;14238;49.496;8.154;2023-09-12T12:56:16;10.60;;;9.60;;
26594;SDS011;14238;49.496;8.154;2023-09-12T12:58:54;10.10;;;9.07;;
26594;SDS011;14238;49.496;8.154;2023-09-12T13:01:22;11.83;;;9.67;;
26594;SDS011;14238;49.496;8.154;2023-09-12T13:03:47;10.07;;;9.30;;
26594;SDS011;14238;49.496;8.154;2023-09-12T13:06:16;10.17;;;9.17;;
26594;SDS011;14238;49.496;8.154;2023-09-12T13:08:43;9.80;;;8.93;;
26594;SDS011;14238;49.496;8.154;2023-09-12T13:11:10;9.83;;;9.03;;
26594;SDS011;14238;49.496;8.154;2023-09-12T13:13:37;9.43;;;8.63;;
26594;SDS011;14238;49.496;8.154;2023-09-12T13:16:04;9.17;;;8.40;;
26594;SDS011;14238;49.496;8.154;2023-09-12T13:18:33;9.90;;;8.90;;
26594;SDS011;14238;49.496;8.154;2023-09-12T13:20:59;8.77;;;7.90;;
26594;SDS011;14238;49.496;8.154;2023-09-12T13:23:24;9.63;;;8.80;;
26594;SDS011;14238;49.496;8.154;2023-09-12T13:25:50;10.00;;;8.47;;
26594;SDS011;14238;49.496;8.154;2023-09-12T13:28:16;10.07;;;9.07;;
26594;SDS011;14238;49.496;8.154;2023-09-12T13:30:42;9.00;;;8.20;;
26594;SDS011;14238;49.496;8.154;2023-09-12T13:33:08;9.97;;;9.17;;
26594;SDS011;14238;49.496;8.154;2023-09-12T13:35:33;9.60;;;8.60;;
26594;SDS011;14238;49.496;8.154;2023-09-12T13:37:59;9.67;;;8.70;;
26594;SDS011;14238;49.496;8.154;2023-09-12T13:40:25;9.73;;;8.83;;
26594;SDS011;14238;49.496;8.154;2023-09-12T13:42:50;8.50;;;7.77;;
26594;SDS011;14238;49.496;8.154;2023-09-12T13:45:15;8.70;;;7.30;;
26594;SDS011;14238;49.496;8.154;2023-09-12T13:47:41;9.23;;;8.43;;
26594;SDS011;14238;49.496;8.154;2023-09-12T13:50:07;9.13;;;8.33;;
26594;SDS011;14238;49.496;8.154;2023-09-12T13:52:33;9.30;;;8.40;;
26594;SDS011;14238;49.496;8.154;2023-09-12T13:54:59;9.10;;;8.27;;
26594;SDS011;14238;49.496;8.154;2023-09-12T13:57:28;9.03;;;8.20;;
26594;SDS011;14238;49.496;8.154;2023-09-12T13:59:53;9.20;;;8.50;;
26594;SDS011;14238;49.496;8.154;2023-09-12T14:02:19;9.40;;;8.60;;
26594;SDS011;14238;49.496;8.154;2023-09-12T14:04:45;9.80;;;9.07;;
26594;SDS011;14238;49.496;8.154;2023-09-12T14:07:10;9.13;;;8.43;;
26594;SDS011;14238;49.496;8.154;2023-09-12T14:09:36;9.97;;;9.07;;
26594;SDS011;14238;49.496;8.154;2023-09-12T14:12:03;9.27;;;8.53;;
26594;SDS011;14238;49.496;8.154;2023-09-12T14:14:31;8.67;;;8.00;;
26594;SDS011;14238;49.496;8.154;2023-09-12T14:16:56;10.43;;;9.43;;
26594;SDS011;14238;49.496;8.154;2023-09-12T14:19:22;11.43;;;9.20;;
26594;SDS011;14238;49.496;8.154;2023-09-12T14:21:47;9.93;;;9.13;;
26594;SDS011;14238;49.496;8.154;2023-09-12T14:24:13;9.67;;;8.87;;
26594;SDS011;14238;49.496;8.154;2023-09-12T14:26:38;10.77;;;9.87;;
26594;SDS011;14238;49.496;8.154;2023-09-12T14:29:04;9.73;;;8.93;;
26594;SDS011;14238;49.496;8.154;2023-09-12T14:31:29;9.57;;;8.70;;
26594;SDS011;14238;49.496;8.154;2023-09-12T14:33:55;9.50;;;8.70;;
26594;SDS011;14238;49.496;8.154;2023-09-12T14:36:21;9.50;;;8.80;;
26594;SDS011;14238;49.496;8.154;2023-09-12T14:38:47;9.40;;;8.50;;
26594;SDS011;14238;49.496;8.154;2023-09-12T14:41:12;9.03;;;8.40;;
26594;SDS011;14238;49.496;8.154;2023-09-12T14:43:38;9.27;;;8.57;;
26594;SDS011;14238;49.496;8.154;2023-09-12T14:46:04;8.37;;;7.83;;